Alfordsville, Indiana
Current Conditions -  °F | °C
As of 9:15 AM on Friday 31 Oct 2014 (Local Time) from KDCY Reporting Station
Overcast Overcast  
Wind Chill: 40°   Ceiling: 1600
Heat Index: 46°   Visibility: 10mi
Dew Point: 43°   Wind: 13mph
Humidity: 90%   Direction: 330°NNW
Pressure: 30.05"   Gusts: 18mph
Location:  38.6074°N, 86.9234°W
Report Text: KDCY 311415Z AUTO 33011G16KT 10SM OVC016 08/06 A3005 RMK AO2 T00760060
Loading
Personal Weather Stations






























Interactive Weather Map
Tropical Storm Tracking
New forecast layout! Learn more

10-Day Weather Forecast

Advertisements
Track Severe Weather on mobile